createdAt,value
2022-08-11T00:01:23.331Z,102033.00
2022-08-11T00:04:01.005Z,102037.00
2022-08-11T00:06:32.127Z,102032.00
2022-08-11T00:09:02.493Z,102031.00
2022-08-11T00:11:58.823Z,102026.00
2022-08-11T00:14:37.101Z,102036.00
2022-08-11T00:17:15.816Z,102044.00
2022-08-11T00:20:13.697Z,102038.00
2022-08-11T00:22:37.215Z,102053.00
2022-08-11T00:25:17.987Z,102040.00
2022-08-11T00:27:47.799Z,102042.00
2022-08-11T00:30:17.146Z,102039.00
2022-08-11T00:32:56.091Z,102039.00
2022-08-11T00:35:51.761Z,102034.00
2022-08-11T00:38:24.888Z,102027.00
2022-08-11T00:41:10.011Z,102029.00
2022-08-11T00:44:05.293Z,102023.00
2022-08-11T00:47:02.265Z,102042.00
2022-08-11T00:49:46.831Z,102045.00
2022-08-11T00:52:54.589Z,102038.00
2022-08-11T00:55:55.593Z,102041.00
2022-08-11T00:59:03.481Z,102033.00
2022-08-11T01:01:37.053Z,102032.00
2022-08-11T01:04:31.590Z,102031.00
2022-08-11T01:08:01.288Z,102040.00
2022-08-11T01:11:02.759Z,102034.00
2022-08-11T01:14:19.271Z,102040.00
2022-08-11T01:17:44.316Z,102047.00
2022-08-11T01:21:12.472Z,102043.00
2022-08-11T01:24:38.643Z,102036.00
2022-08-11T01:27:40.401Z,102046.00
2022-08-11T01:31:05.987Z,102040.00
2022-08-11T01:34:13.093Z,102035.00
2022-08-11T01:37:39.120Z,102049.00
2022-08-11T01:40:38.647Z,102038.00
2022-08-11T01:44:13.263Z,102043.00
2022-08-11T01:47:53.446Z,102042.00
2022-08-11T01:51:18.653Z,102044.00
2022-08-11T01:54:20.842Z,102034.00
2022-08-11T01:57:22.283Z,102031.00
2022-08-11T01:59:59.832Z,102031.00
2022-08-11T02:02:54.311Z,102016.00
2022-08-11T02:06:01.714Z,102025.00
2022-08-11T02:08:52.082Z,102027.00
2022-08-11T02:11:35.471Z,102017.00
2022-08-11T02:14:29.347Z,102023.00
2022-08-11T02:17:18.025Z,102026.00
2022-08-11T02:20:25.849Z,102020.00
2022-08-11T02:24:04.578Z,102027.00
2022-08-11T02:26:44.461Z,102028.00
2022-08-11T02:30:05.147Z,102023.00
2022-08-11T02:33:10.730Z,102017.00
2022-08-11T02:36:19.763Z,102022.00
2022-08-11T02:39:08.493Z,102009.00
2022-08-11T02:42:32.628Z,102011.00
2022-08-11T02:45:34.126Z,102017.00
2022-08-11T02:49:09.057Z,102017.00
2022-08-11T02:51:56.915Z,102014.00
2022-08-11T02:55:10.571Z,102012.00
2022-08-11T02:58:13.590Z,102004.00
2022-08-11T03:00:57.536Z,102007.00
2022-08-11T03:03:33.407Z,102011.00
2022-08-11T03:06:23.409Z,102023.00
2022-08-11T03:09:06.601Z,102010.00
2022-08-11T03:12:25.177Z,102022.00
2022-08-11T03:15:37.780Z,102018.00
2022-08-11T03:18:41.666Z,102019.00
2022-08-11T03:21:22.014Z,102007.00
2022-08-11T03:24:08.551Z,102008.00
2022-08-11T03:27:24.117Z,102015.00
2022-08-11T03:30:32.397Z,102015.00
2022-08-11T03:33:52.495Z,102014.00
2022-08-11T03:37:17.890Z,102016.00
2022-08-11T03:40:01.588Z,102015.00
2022-08-11T03:43:03.352Z,102016.00
2022-08-11T03:45:57.337Z,102023.00
2022-08-11T03:48:47.912Z,102027.00
2022-08-11T03:51:51.841Z,102017.00
2022-08-11T03:54:50.606Z,102020.00
2022-08-11T03:58:19.078Z,102013.00
2022-08-11T04:01:17.090Z,102019.00
2022-08-11T04:04:24.424Z,102011.00
2022-08-11T04:07:28.960Z,102008.00
2022-08-11T04:10:42.499Z,102019.00
2022-08-11T04:13:38.294Z,102019.00
2022-08-11T04:16:26.747Z,102012.00
2022-08-11T04:19:31.396Z,102017.00
2022-08-11T04:22:23.044Z,102019.00
2022-08-11T04:25:16.974Z,102015.00
2022-08-11T04:28:31.403Z,102017.00
2022-08-11T04:31:48.838Z,102016.00
2022-08-11T04:34:44.718Z,102020.00
2022-08-11T04:37:54.852Z,102036.00
2022-08-11T04:41:20.543Z,102030.00
2022-08-11T04:44:43.339Z,102020.00
2022-08-11T04:48:32.609Z,102028.00
2022-08-11T04:51:58.801Z,102018.00
2022-08-11T04:55:37.802Z,102018.00
2022-08-11T04:58:45.534Z,102029.00
2022-08-11T05:01:42.406Z,102032.00
2022-08-11T05:04:58.173Z,102029.00
2022-08-11T05:08:29.415Z,102031.00
2022-08-11T05:11:30.647Z,102031.00
2022-08-11T05:14:48.924Z,102034.00
2022-08-11T05:17:48.349Z,102033.00
2022-08-11T05:20:34.092Z,102038.00
2022-08-11T05:23:27.962Z,102039.00
2022-08-11T05:26:48.022Z,102036.00
2022-08-11T05:29:59.707Z,102040.00
2022-08-11T05:33:01.446Z,102044.00
2022-08-11T05:36:02.532Z,102038.00
2022-08-11T05:38:54.184Z,102047.00
2022-08-11T05:41:50.268Z,102046.00
2022-08-11T05:44:40.630Z,102038.00
2022-08-11T05:47:26.457Z,102052.00
2022-08-11T05:50:13.787Z,102053.00
2022-08-11T05:53:09.100Z,102051.00
2022-08-11T05:56:03.177Z,102055.00
2022-08-11T05:58:43.075Z,102052.00
2022-08-11T06:01:14.386Z,102052.00
2022-08-11T06:04:04.476Z,102052.00
2022-08-11T06:06:32.113Z,102063.00
2022-08-11T06:09:01.078Z,102059.00
2022-08-11T06:11:43.808Z,102057.00
2022-08-11T06:14:13.294Z,102064.00
2022-08-11T06:16:42.810Z,102069.00
2022-08-11T06:19:10.694Z,102074.00
2022-08-11T06:21:38.169Z,102063.00
2022-08-11T06:24:13.878Z,102071.00
2022-08-11T06:29:54.461Z,102071.00
2022-08-11T06:32:46.923Z,102074.00
2022-08-11T06:35:26.238Z,102066.00
2022-08-11T06:38:10.410Z,102073.00
2022-08-11T06:41:32.245Z,102076.00
2022-08-11T06:44:14.256Z,102079.00
2022-08-11T06:46:46.692Z,102068.00
2022-08-11T06:49:35.074Z,102074.00
2022-08-11T06:52:35.193Z,102063.00
2022-08-11T06:55:55.832Z,102071.00
2022-08-11T06:58:51.395Z,102067.00
2022-08-11T07:01:37.189Z,102073.00
2022-08-11T07:04:11.080Z,102063.00
2022-08-11T07:07:28.000Z,102057.00
2022-08-11T07:11:04.177Z,102066.00
2022-08-11T07:13:54.658Z,102068.00
2022-08-11T07:16:29.066Z,102056.00
2022-08-11T07:19:23.224Z,102058.00
2022-08-11T07:22:09.673Z,102052.00
2022-08-11T07:25:03.059Z,102045.00
2022-08-11T07:28:15.068Z,102042.00
2022-08-11T07:30:43.409Z,102051.00
2022-08-11T07:34:05.344Z,102051.00
2022-08-11T07:36:05.732Z,102047.00
2022-08-11T07:38:47.513Z,102045.00
2022-08-11T07:41:18.492Z,102051.00
2022-08-11T07:43:52.473Z,102050.00
2022-08-11T07:47:01.016Z,102044.00
2022-08-11T07:49:51.524Z,102049.00
2022-08-11T07:52:29.674Z,102048.00
2022-08-11T07:55:51.194Z,102052.00
2022-08-11T07:58:45.020Z,102043.00
2022-08-11T08:01:38.423Z,102046.00
2022-08-11T08:04:26.900Z,102043.00
2022-08-11T08:07:13.326Z,102052.00
2022-08-11T08:10:02.069Z,102046.00
2022-08-11T08:12:49.797Z,102056.00
2022-08-11T08:15:36.867Z,102055.00
2022-08-11T08:18:10.045Z,102051.00
2022-08-11T08:20:55.308Z,102045.00
2022-08-11T08:23:35.412Z,102048.00
2022-08-11T08:26:29.362Z,102048.00
2022-08-11T08:29:20.854Z,102041.00
2022-08-11T08:31:49.598Z,102051.00
2022-08-11T08:34:17.848Z,102043.00
2022-08-11T08:36:48.415Z,102048.00
2022-08-11T08:39:21.541Z,102040.00
2022-08-11T08:41:57.015Z,102046.00
2022-08-11T08:44:42.035Z,102049.00
2022-08-11T08:47:41.903Z,102039.00
2022-08-11T08:50:21.459Z,102043.00
2022-08-11T08:53:06.005Z,102047.00
2022-08-11T08:55:34.194Z,102036.00
2022-08-11T08:58:02.252Z,102035.00
2022-08-11T09:00:42.391Z,102041.00
2022-08-11T09:03:40.635Z,102041.00
2022-08-11T09:05:58.628Z,102032.00
2022-08-11T09:08:25.875Z,102022.00
2022-08-11T09:11:14.244Z,102024.00
2022-08-11T09:13:44.479Z,102026.00
2022-08-11T09:16:12.939Z,102016.00
2022-08-11T09:18:44.619Z,102033.00
2022-08-11T09:21:15.634Z,102035.00
2022-08-11T09:24:26.009Z,102034.00
2022-08-11T09:27:00.091Z,102025.00
2022-08-11T09:29:33.055Z,102023.00
2022-08-11T09:32:00.672Z,102026.00
2022-08-11T09:34:28.614Z,102018.00
2022-08-11T09:37:28.405Z,102020.00
2022-08-11T09:40:21.210Z,102012.00
2022-08-11T09:43:15.755Z,102011.00
2022-08-11T09:45:51.484Z,102016.00
2022-08-11T09:48:21.903Z,102010.00
2022-08-11T09:51:00.227Z,102009.00
2022-08-11T09:54:03.471Z,102006.00
2022-08-11T09:56:51.126Z,102005.00
2022-08-11T09:59:21.727Z,102000.00
2022-08-11T10:01:57.234Z,101996.00
2022-08-11T10:04:35.110Z,102000.00
2022-08-11T10:07:10.694Z,101998.00
2022-08-11T10:09:52.201Z,101991.00
2022-08-11T10:12:37.272Z,101992.00
2022-08-11T10:15:29.128Z,101986.00
2022-08-11T10:18:25.856Z,101983.00
2022-08-11T10:21:01.544Z,101984.00
2022-08-11T10:24:00.293Z,101976.00
2022-08-11T10:26:49.533Z,101982.00
2022-08-11T10:29:44.221Z,101971.00
2022-08-11T10:32:33.262Z,101979.00
2022-08-11T10:35:13.614Z,101979.00
2022-08-11T10:38:09.112Z,101977.00
2022-08-11T10:40:32.702Z,101972.00
2022-08-11T10:43:07.658Z,101970.00
2022-08-11T10:45:57.491Z,101964.00
2022-08-11T10:48:28.286Z,101979.00
2022-08-11T10:51:14.824Z,101964.00
2022-08-11T10:54:04.939Z,101961.00
2022-08-11T10:56:55.793Z,101957.00
2022-08-11T10:59:26.649Z,101949.00
2022-08-11T11:01:54.634Z,101945.00
2022-08-11T11:04:33.927Z,101950.00
2022-08-11T11:07:15.113Z,101937.00
2022-08-11T11:09:48.947Z,101946.00
2022-08-11T11:12:49.357Z,101952.00
2022-08-11T11:15:39.864Z,101941.00
2022-08-11T11:18:12.732Z,101945.00
2022-08-11T11:20:51.428Z,101943.00
2022-08-11T11:24:12.142Z,101935.00
2022-08-11T11:27:32.963Z,101939.00
2022-08-11T11:30:10.423Z,101934.00
2022-08-11T11:33:11.304Z,101924.00
2022-08-11T11:36:26.963Z,101928.00
2022-08-11T11:38:56.505Z,101924.00
2022-08-11T11:41:25.721Z,101920.00
2022-08-11T11:43:57.190Z,101921.00
2022-08-11T11:46:30.208Z,101932.00
2022-08-11T11:49:00.183Z,101919.00
2022-08-11T11:51:28.323Z,101915.00
2022-08-11T11:53:56.056Z,101919.00
2022-08-11T11:56:25.765Z,101906.00
2022-08-11T11:59:14.623Z,101907.00
2022-08-11T12:01:44.837Z,101908.00
2022-08-11T12:04:20.516Z,101906.00
2022-08-11T12:06:47.808Z,101892.00
2022-08-11T12:09:18.369Z,101899.00
2022-08-11T12:12:04.518Z,101898.00
2022-08-11T12:14:31.905Z,101894.00
2022-08-11T12:16:59.533Z,101894.00
2022-08-11T12:19:35.758Z,101893.00
2022-08-11T12:22:21.978Z,101884.00
2022-08-11T12:25:07.681Z,101879.00
2022-08-11T12:27:38.922Z,101886.00
2022-08-11T12:30:08.458Z,101886.00
2022-08-11T12:32:38.767Z,101883.00
2022-08-11T12:35:08.443Z,101880.00
2022-08-11T12:37:44.583Z,101871.00
2022-08-11T12:41:11.575Z,101876.00
2022-08-11T12:43:56.519Z,101872.00
2022-08-11T12:46:31.923Z,101870.00
2022-08-11T12:49:41.904Z,101863.00
2022-08-11T12:52:25.353Z,101862.00
2022-08-11T12:55:13.558Z,101852.00
2022-08-11T12:58:05.218Z,101846.00
2022-08-11T13:00:52.232Z,101853.00
2022-08-11T13:03:39.898Z,101842.00
2022-08-11T13:06:08.434Z,101830.00
2022-08-11T13:08:39.248Z,101829.00
2022-08-11T13:11:55.991Z,101834.00
2022-08-11T13:14:15.596Z,101825.00
2022-08-11T13:17:03.202Z,101830.00
2022-08-11T13:19:32.212Z,101823.00
2022-08-11T13:22:00.923Z,101825.00
2022-08-11T13:24:28.781Z,101823.00
2022-08-11T13:26:56.371Z,101820.00
2022-08-11T13:29:27.599Z,101823.00
2022-08-11T13:32:01.114Z,101824.00
2022-08-11T13:34:33.159Z,101814.00
2022-08-11T13:37:04.561Z,101825.00
2022-08-11T13:39:34.656Z,101821.00
2022-08-11T13:42:04.606Z,101813.00
2022-08-11T13:44:36.677Z,101811.00
2022-08-11T13:47:08.513Z,101815.00
2022-08-11T13:49:39.602Z,101810.00
2022-08-11T13:52:15.099Z,101805.00
2022-08-11T13:54:44.946Z,101803.00
2022-08-11T13:58:08.583Z,101797.00
2022-08-11T14:00:20.901Z,101808.00
2022-08-11T14:02:57.529Z,101790.00
2022-08-11T14:05:31.261Z,101795.00
2022-08-11T14:08:37.713Z,101800.00
2022-08-11T14:12:19.990Z,101798.00
2022-08-11T14:14:13.767Z,101792.00
2022-08-11T14:16:44.672Z,101791.00
2022-08-11T14:19:14.475Z,101793.00
2022-08-11T14:22:07.650Z,101788.00
2022-08-11T14:24:39.999Z,101788.00
2022-08-11T14:28:22.042Z,101781.00
2022-08-11T14:30:00.661Z,101775.00
2022-08-11T14:32:28.238Z,101776.00
2022-08-11T14:34:55.734Z,101779.00
2022-08-11T14:37:27.462Z,101783.00
2022-08-11T14:40:03.241Z,101776.00
2022-08-11T14:42:49.845Z,101774.00
2022-08-11T14:45:58.339Z,101775.00
2022-08-11T14:48:23.899Z,101782.00
2022-08-11T14:50:51.520Z,101767.00
2022-08-11T14:53:22.785Z,101769.00
2022-08-11T14:56:10.082Z,101768.00
2022-08-11T14:58:39.781Z,101760.00
2022-08-11T15:01:28.349Z,101769.00
2022-08-11T15:04:34.621Z,101772.00
2022-08-11T15:06:44.184Z,101764.00
2022-08-11T15:09:11.074Z,101759.00
2022-08-11T15:11:57.098Z,101756.00
2022-08-11T15:14:43.510Z,101743.00
2022-08-11T15:17:13.277Z,101752.00
2022-08-11T15:20:04.127Z,101754.00
2022-08-11T15:22:50.159Z,101749.00
2022-08-11T15:25:17.138Z,101744.00
2022-08-11T15:28:07.419Z,101749.00
2022-08-11T15:30:55.606Z,101741.00
2022-08-11T15:33:47.127Z,101746.00
2022-08-11T15:36:34.270Z,101739.00
2022-08-11T15:39:20.947Z,101743.00
2022-08-11T15:42:19.844Z,101736.00
2022-08-11T15:45:16.358Z,101736.00
2022-08-11T15:47:58.503Z,101741.00
2022-08-11T15:50:40.084Z,101741.00
2022-08-11T15:53:21.984Z,101736.00
2022-08-11T15:55:49.277Z,101731.00
2022-08-11T15:58:38.423Z,101738.00
2022-08-11T16:01:28.029Z,101723.00
2022-08-11T16:04:12.436Z,101728.00
2022-08-11T16:07:01.939Z,101726.00
2022-08-11T16:10:00.051Z,101729.00
2022-08-11T16:12:31.487Z,101717.00
2022-08-11T16:15:25.497Z,101719.00
2022-08-11T16:18:01.725Z,101721.00
2022-08-11T16:20:31.775Z,101723.00
2022-08-11T16:23:04.822Z,101716.00
2022-08-11T16:27:04.749Z,101713.00
2022-08-11T16:28:25.969Z,101716.00
2022-08-11T16:30:55.174Z,101718.00
2022-08-11T16:33:50.468Z,101719.00
2022-08-11T16:36:33.597Z,101716.00
2022-08-11T16:39:03.213Z,101723.00
2022-08-11T16:41:54.082Z,101723.00
2022-08-11T16:44:42.961Z,101724.00
2022-08-11T16:47:18.159Z,101718.00
2022-08-11T16:50:08.664Z,101715.00
2022-08-11T16:52:35.523Z,101719.00
2022-08-11T16:55:03.919Z,101717.00
2022-08-11T16:57:52.848Z,101718.00
2022-08-11T17:00:19.645Z,101723.00
2022-08-11T17:03:11.729Z,101713.00
2022-08-11T17:06:06.750Z,101711.00
2022-08-11T17:09:02.730Z,101710.00
2022-08-11T17:11:56.766Z,101709.00
2022-08-11T17:14:37.697Z,101713.00
2022-08-11T17:17:38.926Z,101716.00
2022-08-11T17:20:41.017Z,101714.00
2022-08-11T17:23:17.689Z,101707.00
2022-08-11T17:26:03.739Z,101712.00
2022-08-11T17:28:33.248Z,101725.00
2022-08-11T17:31:22.460Z,101716.00
2022-08-11T17:34:10.729Z,101718.00
2022-08-11T17:36:44.582Z,101715.00
2022-08-11T17:39:14.729Z,101712.00
2022-08-11T17:42:03.213Z,101713.00
2022-08-11T17:44:51.581Z,101713.00
2022-08-11T17:47:38.956Z,101714.00
2022-08-11T17:50:16.499Z,101710.00
2022-08-11T17:53:05.425Z,101714.00
2022-08-11T17:55:54.408Z,101715.00
2022-08-11T17:58:42.136Z,101726.00
2022-08-11T18:01:11.679Z,101713.00
2022-08-11T18:03:57.571Z,101721.00
2022-08-11T18:06:34.361Z,101723.00
2022-08-11T18:09:26.820Z,101710.00
2022-08-11T18:12:14.731Z,101728.00
2022-08-11T18:15:06.351Z,101724.00
2022-08-11T18:17:54.560Z,101728.00
2022-08-11T18:20:41.582Z,101730.00
2022-08-11T18:23:46.293Z,101728.00
2022-08-11T18:26:38.404Z,101732.00
2022-08-11T18:29:26.880Z,101735.00
2022-08-11T18:32:20.891Z,101739.00
2022-08-11T18:35:09.585Z,101741.00
2022-08-11T18:38:02.618Z,101751.00
2022-08-11T18:40:49.543Z,101737.00
2022-08-11T18:43:39.946Z,101751.00
2022-08-11T18:46:30.209Z,101751.00
2022-08-11T18:50:02.100Z,101748.00
2022-08-11T18:52:44.283Z,101745.00
2022-08-11T18:55:38.890Z,101760.00
2022-08-11T18:58:30.240Z,101747.00
2022-08-11T19:01:20.274Z,101760.00
2022-08-11T19:04:11.204Z,101748.00
2022-08-11T19:07:07.019Z,101751.00
2022-08-11T19:09:56.559Z,101759.00
2022-08-11T19:12:44.322Z,101758.00
2022-08-11T19:15:32.259Z,101767.00
2022-08-11T19:18:19.434Z,101759.00
2022-08-11T19:21:06.974Z,101761.00
2022-08-11T19:23:57.348Z,101762.00
2022-08-11T19:26:43.729Z,101757.00
2022-08-11T19:30:07.926Z,101760.00
2022-08-11T19:32:39.546Z,101762.00
2022-08-11T19:35:26.640Z,101753.00
2022-08-11T19:38:14.009Z,101760.00
2022-08-11T19:41:01.016Z,101752.00
2022-08-11T19:43:50.355Z,101755.00
2022-08-11T19:46:41.867Z,101765.00
2022-08-11T19:49:29.102Z,101760.00
2022-08-11T19:52:17.055Z,101754.00
2022-08-11T19:55:04.668Z,101753.00
2022-08-11T19:57:53.164Z,101755.00
2022-08-11T20:00:39.920Z,101747.00
2022-08-11T20:03:29.884Z,101754.00
2022-08-11T20:06:21.401Z,101752.00
2022-08-11T20:09:09.878Z,101761.00
2022-08-11T20:12:01.475Z,101755.00
2022-08-11T20:14:53.293Z,101759.00
2022-08-11T20:17:44.618Z,101762.00
2022-08-11T20:20:33.570Z,101765.00
2022-08-11T20:23:24.293Z,101765.00
2022-08-11T20:26:30.259Z,101761.00
2022-08-11T20:29:19.294Z,101767.00
2022-08-11T20:32:08.474Z,101774.00
2022-08-11T20:34:57.546Z,101778.00
2022-08-11T20:37:51.020Z,101781.00
2022-08-11T20:40:42.745Z,101789.00
2022-08-11T20:44:08.206Z,101777.00
2022-08-11T20:46:43.060Z,101780.00
2022-08-11T20:49:44.971Z,101784.00
2022-08-11T20:52:38.952Z,101789.00
2022-08-11T20:55:51.634Z,101791.00
2022-08-11T21:18:44.652Z,101783.00
2022-08-11T21:26:28.107Z,101799.00
2022-08-11T21:29:47.001Z,101793.00
2022-08-11T21:33:34.146Z,101804.00
2022-08-11T21:41:57.080Z,101788.00
2022-08-11T21:53:38.230Z,101798.00
2022-08-11T22:05:46.488Z,101796.00
